sensor_id;sensor_type;location;lat;lon;timestamp;temperature;humidity
66422;DHT22;53228;51.380;0.098;2023-08-08T08:43:54;19.10;99.90
66422;DHT22;53228;51.380;0.098;2023-08-08T09:45:48;20.20;99.90
66422;DHT22;53228;51.380;0.098;2023-08-08T09:48:17;20.40;99.90
66422;DHT22;53228;51.380;0.098;2023-08-08T09:50:46;20.50;99.90
66422;DHT22;53228;51.380;0.098;2023-08-08T09:55:44;20.80;99.90
66422;DHT22;53228;51.380;0.098;2023-08-08T09:58:11;20.90;99.90
66422;DHT22;53228;51.380;0.098;2023-08-08T10:00:41;21.00;99.90
66422;DHT22;53228;51.380;0.098;2023-08-08T10:03:08;21.00;99.90
66422;DHT22;53228;51.380;0.098;2023-08-08T10:05:36;21.00;99.90
66422;DHT22;53228;51.380;0.098;2023-08-08T10:08:05;20.90;99.90
66422;DHT22;53228;51.380;0.098;2023-08-08T10:10:34;21.00;99.90
66422;DHT22;53228;51.380;0.098;2023-08-08T10:13:02;21.00;99.90
66422;DHT22;53228;51.380;0.098;2023-08-08T10:15:30;20.90;99.90
66422;DHT22;53228;51.380;0.098;2023-08-08T10:17:58;20.80;99.90
66422;DHT22;53228;51.380;0.098;2023-08-08T10:20:26;20.80;99.90
66422;DHT22;53228;51.380;0.098;2023-08-08T10:22:54;20.80;99.90
66422;DHT22;53228;51.380;0.098;2023-08-08T10:25:27;21.00;99.90
66422;DHT22;53228;51.380;0.098;2023-08-08T10:28:08;21.10;99.90
66422;DHT22;53228;51.380;0.098;2023-08-08T11:04:22;22.60;99.90
66422;DHT22;53228;51.380;0.098;2023-08-08T11:06:52;23.50;99.90
66422;DHT22;53228;51.380;0.098;2023-08-08T11:09:22;23.20;99.90
66422;DHT22;53228;51.380;0.098;2023-08-08T11:11:50;23.10;99.90
66422;DHT22;53228;51.380;0.098;2023-08-08T11:14:21;23.00;99.90
66422;DHT22;53228;51.380;0.098;2023-08-08T11:16:51;22.90;99.90
66422;DHT22;53228;51.380;0.098;2023-08-08T11:19:20;22.80;99.90
66422;DHT22;53228;51.380;0.098;2023-08-08T11:21:48;22.60;99.90
66422;DHT22;53228;51.380;0.098;2023-08-08T11:24:16;22.60;99.90
66422;DHT22;53228;51.380;0.098;2023-08-08T11:26:44;22.60;99.90
66422;DHT22;53228;51.380;0.098;2023-08-08T11:29:15;22.60;99.90
66422;DHT22;53228;51.380;0.098;2023-08-08T11:31:42;22.70;99.90
66422;DHT22;53228;51.380;0.098;2023-08-08T11:34:10;23.00;99.90
66422;DHT22;53228;51.380;0.098;2023-08-08T11:36:39;23.10;99.90
66422;DHT22;53228;51.380;0.098;2023-08-08T11:39:09;23.40;99.90
66422;DHT22;53228;51.380;0.098;2023-08-08T11:41:38;23.50;99.90
66422;DHT22;53228;51.380;0.098;2023-08-08T11:44:07;23.50;99.90
66422;DHT22;53228;51.380;0.098;2023-08-08T11:46:46;23.50;99.90
66422;DHT22;53228;51.380;0.098;2023-08-08T11:49:15;23.40;99.90
66422;DHT22;53228;51.380;0.098;2023-08-08T11:51:44;23.50;99.90
66422;DHT22;53228;51.380;0.098;2023-08-08T11:54:13;23.70;99.90
66422;DHT22;53228;51.380;0.098;2023-08-08T11:56:41;23.80;99.90
66422;DHT22;53228;51.380;0.098;2023-08-08T11:59:09;23.90;99.90
66422;DHT22;53228;51.380;0.098;2023-08-08T12:01:38;23.90;99.90
66422;DHT22;53228;51.380;0.098;2023-08-08T12:04:07;23.70;99.90
66422;DHT22;53228;51.380;0.098;2023-08-08T12:06:39;23.40;99.90
66422;DHT22;53228;51.380;0.098;2023-08-08T12:09:07;23.30;99.90
66422;DHT22;53228;51.380;0.098;2023-08-08T12:11:36;23.20;99.90
66422;DHT22;53228;51.380;0.098;2023-08-08T12:14:08;23.20;99.90
66422;DHT22;53228;51.380;0.098;2023-08-08T12:16:38;23.30;99.90
66422;DHT22;53228;51.380;0.098;2023-08-08T12:19:08;22.70;99.90
66422;DHT22;53228;51.380;0.098;2023-08-08T12:21:39;23.30;99.90
66422;DHT22;53228;51.380;0.098;2023-08-08T12:24:07;23.10;99.90
66422;DHT22;53228;51.380;0.098;2023-08-08T12:26:35;23.10;99.90
66422;DHT22;53228;51.380;0.098;2023-08-08T12:29:02;22.30;99.90
66422;DHT22;53228;51.380;0.098;2023-08-08T12:31:30;22.10;99.90
66422;DHT22;53228;51.380;0.098;2023-08-08T12:33:58;22.00;99.90
66422;DHT22;53228;51.380;0.098;2023-08-08T12:36:26;21.50;99.90
66422;DHT22;53228;51.380;0.098;2023-08-08T12:38:53;21.10;99.90
66422;DHT22;53228;51.380;0.098;2023-08-08T12:41:22;20.80;99.90
66422;DHT22;53228;51.380;0.098;2023-08-08T12:43:50;20.50;99.90
66422;DHT22;53228;51.380;0.098;2023-08-08T12:46:17;20.30;99.90
66422;DHT22;53228;51.380;0.098;2023-08-08T12:48:45;20.00;99.90
66422;DHT22;53228;51.380;0.098;2023-08-08T12:51:13;19.90;99.90
66422;DHT22;53228;51.380;0.098;2023-08-08T12:53:40;19.80;99.90
66422;DHT22;53228;51.380;0.098;2023-08-08T12:56:08;19.70;99.90
66422;DHT22;53228;51.380;0.098;2023-08-08T12:58:36;19.30;99.90
66422;DHT22;53228;51.380;0.098;2023-08-08T13:01:04;19.70;99.90
66422;DHT22;53228;51.380;0.098;2023-08-08T13:03:31;19.50;99.90
66422;DHT22;53228;51.380;0.098;2023-08-08T13:06:01;19.60;99.90
66422;DHT22;53228;51.380;0.098;2023-08-08T13:08:29;19.60;99.90
66422;DHT22;53228;51.380;0.098;2023-08-08T13:10:56;19.50;99.90
66422;DHT22;53228;51.380;0.098;2023-08-08T13:13:24;19.40;99.90
66422;DHT22;53228;51.380;0.098;2023-08-08T13:15:53;19.30;99.90
66422;DHT22;53228;51.380;0.098;2023-08-08T13:18:21;19.90;99.90
66422;DHT22;53228;51.380;0.098;2023-08-08T13:20:48;19.00;99.90
66422;DHT22;53228;51.380;0.098;2023-08-08T13:23:16;19.10;99.90
66422;DHT22;53228;51.380;0.098;2023-08-08T13:25:44;19.40;99.90
66422;DHT22;53228;51.380;0.098;2023-08-08T13:28:12;19.10;99.90
66422;DHT22;53228;51.380;0.098;2023-08-08T13:30:39;19.00;99.90
66422;DHT22;53228;51.380;0.098;2023-08-08T13:33:09;20.00;99.90
66422;DHT22;53228;51.380;0.098;2023-08-08T13:35:36;18.80;99.90
66422;DHT22;53228;51.380;0.098;2023-08-08T13:38:04;18.70;99.90
66422;DHT22;53228;51.380;0.098;2023-08-08T13:40:32;18.70;99.90
66422;DHT22;53228;51.380;0.098;2023-08-08T13:42:59;18.60;99.90
66422;DHT22;53228;51.380;0.098;2023-08-08T13:45:27;18.50;99.90
66422;DHT22;53228;51.380;0.098;2023-08-08T13:47:55;18.50;99.90
66422;DHT22;53228;51.380;0.098;2023-08-08T13:50:23;18.50;99.90
66422;DHT22;53228;51.380;0.098;2023-08-08T13:52:50;18.40;99.90
66422;DHT22;53228;51.380;0.098;2023-08-08T13:55:20;18.40;99.90
66422;DHT22;53228;51.380;0.098;2023-08-08T13:57:47;18.40;99.90
66422;DHT22;53228;51.380;0.098;2023-08-08T14:00:15;18.40;99.90
66422;DHT22;53228;51.380;0.098;2023-08-08T14:02:44;18.50;99.90
66422;DHT22;53228;51.380;0.098;2023-08-08T14:05:11;18.50;99.90
66422;DHT22;53228;51.380;0.098;2023-08-08T14:07:39;18.50;99.90
66422;DHT22;53228;51.380;0.098;2023-08-08T14:10:08;18.60;99.90
66422;DHT22;53228;51.380;0.098;2023-08-08T14:12:36;18.70;99.90
66422;DHT22;53228;51.380;0.098;2023-08-08T14:15:07;18.90;99.90
66422;DHT22;53228;51.380;0.098;2023-08-08T14:17:36;19.10;99.90
66422;DHT22;53228;51.380;0.098;2023-08-08T14:20:04;19.30;99.90
66422;DHT22;53228;51.380;0.098;2023-08-08T14:22:34;19.60;99.90
66422;DHT22;53228;51.380;0.098;2023-08-08T14:25:02;19.80;99.90
66422;DHT22;53228;51.380;0.098;2023-08-08T14:27:31;20.00;99.90
66422;DHT22;53228;51.380;0.098;2023-08-08T14:29:58;19.70;99.90
66422;DHT22;53228;51.380;0.098;2023-08-08T14:32:26;20.30;99.90
66422;DHT22;53228;51.380;0.098;2023-08-08T14:34:54;20.40;99.90
66422;DHT22;53228;51.380;0.098;2023-08-08T14:37:24;20.60;99.90
66422;DHT22;53228;51.380;0.098;2023-08-08T14:39:53;20.80;99.90
66422;DHT22;53228;51.380;0.098;2023-08-08T14:42:20;20.90;99.90
66422;DHT22;53228;51.380;0.098;2023-08-08T14:44:48;21.00;99.90
66422;DHT22;53228;51.380;0.098;2023-08-08T14:47:16;21.00;99.90
66422;DHT22;53228;51.380;0.098;2023-08-08T14:49:44;20.90;99.90
66422;DHT22;53228;51.380;0.098;2023-08-08T14:52:12;20.90;99.90
66422;DHT22;53228;51.380;0.098;2023-08-08T14:54:39;20.80;99.90
66422;DHT22;53228;51.380;0.098;2023-08-08T14:57:07;20.70;99.90
66422;DHT22;53228;51.380;0.098;2023-08-08T14:59:35;20.70;99.90
66422;DHT22;53228;51.380;0.098;2023-08-08T15:02:03;20.70;99.90
66422;DHT22;53228;51.380;0.098;2023-08-08T15:04:31;20.80;99.90
66422;DHT22;53228;51.380;0.098;2023-08-08T15:06:59;20.80;99.90
66422;DHT22;53228;51.380;0.098;2023-08-08T15:09:27;20.90;99.90
66422;DHT22;53228;51.380;0.098;2023-08-08T15:11:55;20.80;99.90
66422;DHT22;53228;51.380;0.098;2023-08-08T15:14:23;20.80;99.90
66422;DHT22;53228;51.380;0.098;2023-08-08T15:16:51;20.70;99.90
66422;DHT22;53228;51.380;0.098;2023-08-08T15:19:19;20.70;99.90
66422;DHT22;53228;51.380;0.098;2023-08-08T15:21:47;20.70;99.90
66422;DHT22;53228;51.380;0.098;2023-08-08T15:24:15;20.70;99.90
66422;DHT22;53228;51.380;0.098;2023-08-08T15:26:43;20.70;99.90
66422;DHT22;53228;51.380;0.098;2023-08-08T15:29:10;20.70;99.90
66422;DHT22;53228;51.380;0.098;2023-08-08T15:31:38;20.70;99.90
66422;DHT22;53228;51.380;0.098;2023-08-08T15:34:06;20.50;99.90
66422;DHT22;53228;51.380;0.098;2023-08-08T15:36:33;20.50;99.90
66422;DHT22;53228;51.380;0.098;2023-08-08T15:39:01;20.50;99.90
66422;DHT22;53228;51.380;0.098;2023-08-08T15:41:29;20.50;99.90
66422;DHT22;53228;51.380;0.098;2023-08-08T15:43:56;20.50;99.90
66422;DHT22;53228;51.380;0.098;2023-08-08T15:46:24;20.50;99.90
66422;DHT22;53228;51.380;0.098;2023-08-08T15:48:52;20.50;99.90
66422;DHT22;53228;51.380;0.098;2023-08-08T15:51:19;20.50;99.90
66422;DHT22;53228;51.380;0.098;2023-08-08T15:53:47;20.40;99.90
66422;DHT22;53228;51.380;0.098;2023-08-08T15:56:15;20.40;99.90
66422;DHT22;53228;51.380;0.098;2023-08-08T15:58:42;20.40;99.90
66422;DHT22;53228;51.380;0.098;2023-08-08T16:01:10;20.40;99.90
66422;DHT22;53228;51.380;0.098;2023-08-08T16:03:38;20.20;99.90
66422;DHT22;53228;51.380;0.098;2023-08-08T16:06:06;20.10;99.90
66422;DHT22;53228;51.380;0.098;2023-08-08T16:08:33;20.10;99.90
66422;DHT22;53228;51.380;0.098;2023-08-08T16:11:02;20.00;99.90
66422;DHT22;53228;51.380;0.098;2023-08-08T16:13:30;19.90;99.90
66422;DHT22;53228;51.380;0.098;2023-08-08T16:15:58;19.80;99.90
66422;DHT22;53228;51.380;0.098;2023-08-08T16:18:26;19.80;99.90
66422;DHT22;53228;51.380;0.098;2023-08-08T16:20:53;19.80;99.90
66422;DHT22;53228;51.380;0.098;2023-08-08T16:23:21;19.90;99.90
66422;DHT22;53228;51.380;0.098;2023-08-08T16:25:49;19.90;99.90
66422;DHT22;53228;51.380;0.098;2023-08-08T16:28:17;19.90;99.90
66422;DHT22;53228;51.380;0.098;2023-08-08T16:30:44;19.80;99.90
66422;DHT22;53228;51.380;0.098;2023-08-08T16:33:12;19.80;99.90
66422;DHT22;53228;51.380;0.098;2023-08-08T16:35:43;19.70;99.90
66422;DHT22;53228;51.380;0.098;2023-08-08T16:38:11;19.60;99.90
66422;DHT22;53228;51.380;0.098;2023-08-08T16:40:39;19.20;99.90
66422;DHT22;53228;51.380;0.098;2023-08-08T16:43:08;19.20;99.90
66422;DHT22;53228;51.380;0.098;2023-08-08T16:45:35;19.00;99.90
66422;DHT22;53228;51.380;0.098;2023-08-08T16:48:03;18.10;99.90
66422;DHT22;53228;51.380;0.098;2023-08-08T16:50:31;18.80;99.90
66422;DHT22;53228;51.380;0.098;2023-08-08T16:53:00;18.80;99.90
66422;DHT22;53228;51.380;0.098;2023-08-08T16:55:28;18.80;99.90
66422;DHT22;53228;51.380;0.098;2023-08-08T16:57:55;18.90;99.90
66422;DHT22;53228;51.380;0.098;2023-08-08T17:00:23;19.50;99.90
66422;DHT22;53228;51.380;0.098;2023-08-08T17:02:51;19.00;99.90
66422;DHT22;53228;51.380;0.098;2023-08-08T17:05:18;19.10;99.90
66422;DHT22;53228;51.380;0.098;2023-08-08T17:07:46;19.00;99.90
66422;DHT22;53228;51.380;0.098;2023-08-08T17:10:14;19.00;99.90
66422;DHT22;53228;51.380;0.098;2023-08-08T17:12:41;18.90;99.90
66422;DHT22;53228;51.380;0.098;2023-08-08T17:15:09;18.80;99.90
66422;DHT22;53228;51.380;0.098;2023-08-08T17:17:37;18.80;99.90
66422;DHT22;53228;51.380;0.098;2023-08-08T17:20:05;18.70;99.90
66422;DHT22;53228;51.380;0.098;2023-08-08T17:22:33;18.50;99.90
66422;DHT22;53228;51.380;0.098;2023-08-08T17:25:01;18.20;99.90
66422;DHT22;53228;51.380;0.098;2023-08-08T17:27:29;18.30;99.90
66422;DHT22;53228;51.380;0.098;2023-08-08T17:29:57;18.20;99.90
66422;DHT22;53228;51.380;0.098;2023-08-08T17:32:25;18.10;99.90
66422;DHT22;53228;51.380;0.098;2023-08-08T17:34:53;18.00;99.90
66422;DHT22;53228;51.380;0.098;2023-08-08T17:37:20;17.90;99.90
66422;DHT22;53228;51.380;0.098;2023-08-08T17:39:48;17.80;99.90
66422;DHT22;53228;51.380;0.098;2023-08-08T17:42:16;17.70;99.90
66422;DHT22;53228;51.380;0.098;2023-08-08T17:44:43;17.70;99.90
66422;DHT22;53228;51.380;0.098;2023-08-08T17:47:11;17.70;99.90
66422;DHT22;53228;51.380;0.098;2023-08-08T17:49:39;17.70;99.90
66422;DHT22;53228;51.380;0.098;2023-08-08T17:52:06;17.60;99.90
66422;DHT22;53228;51.380;0.098;2023-08-08T17:54:34;17.50;99.90
66422;DHT22;53228;51.380;0.098;2023-08-08T17:57:02;17.50;99.90
66422;DHT22;53228;51.380;0.098;2023-08-08T17:59:30;17.60;99.90
66422;DHT22;53228;51.380;0.098;2023-08-08T18:01:57;17.60;99.90
66422;DHT22;53228;51.380;0.098;2023-08-08T18:04:26;17.60;99.90
66422;DHT22;53228;51.380;0.098;2023-08-08T18:06:54;17.70;99.90
66422;DHT22;53228;51.380;0.098;2023-08-08T18:09:22;17.70;99.90
66422;DHT22;53228;51.380;0.098;2023-08-08T18:11:50;17.70;99.90
66422;DHT22;53228;51.380;0.098;2023-08-08T18:14:17;17.60;99.90
66422;DHT22;53228;51.380;0.098;2023-08-08T18:16:45;17.50;99.90
66422;DHT22;53228;51.380;0.098;2023-08-08T18:19:13;17.40;99.90
66422;DHT22;53228;51.380;0.098;2023-08-08T18:21:41;17.30;99.90
66422;DHT22;53228;51.380;0.098;2023-08-08T18:24:09;17.30;99.90
66422;DHT22;53228;51.380;0.098;2023-08-08T18:26:37;17.30;99.90
66422;DHT22;53228;51.380;0.098;2023-08-08T18:29:05;17.20;99.90
66422;DHT22;53228;51.380;0.098;2023-08-08T18:31:33;17.10;99.90
66422;DHT22;53228;51.380;0.098;2023-08-08T18:34:02;17.30;99.90
66422;DHT22;53228;51.380;0.098;2023-08-08T18:36:30;17.00;99.90
66422;DHT22;53228;51.380;0.098;2023-08-08T18:38:58;17.00;99.90
66422;DHT22;53228;51.380;0.098;2023-08-08T18:41:26;16.90;99.90
66422;DHT22;53228;51.380;0.098;2023-08-08T18:43:54;16.50;99.90
66422;DHT22;53228;51.380;0.098;2023-08-08T18:46:22;16.70;99.90
66422;DHT22;53228;51.380;0.098;2023-08-08T18:48:50;16.60;99.90
66422;DHT22;53228;51.380;0.098;2023-08-08T18:51:18;16.50;99.90
66422;DHT22;53228;51.380;0.098;2023-08-08T18:53:46;16.50;99.90
66422;DHT22;53228;51.380;0.098;2023-08-08T18:56:13;16.40;99.90
66422;DHT22;53228;51.380;0.098;2023-08-08T18:58:41;16.30;99.90
66422;DHT22;53228;51.380;0.098;2023-08-08T19:01:09;16.30;99.90
66422;DHT22;53228;51.380;0.098;2023-08-08T19:03:37;16.20;99.90
66422;DHT22;53228;51.380;0.098;2023-08-08T19:06:05;16.20;99.90
66422;DHT22;53228;51.380;0.098;2023-08-08T19:08:33;16.20;99.90
66422;DHT22;53228;51.380;0.098;2023-08-08T19:11:01;16.10;99.90
66422;DHT22;53228;51.380;0.098;2023-08-08T19:13:29;15.20;99.90
66422;DHT22;53228;51.380;0.098;2023-08-08T19:15:57;16.00;99.90
66422;DHT22;53228;51.380;0.098;2023-08-08T19:18:25;16.00;99.90
66422;DHT22;53228;51.380;0.098;2023-08-08T19:20:53;15.90;99.90
66422;DHT22;53228;51.380;0.098;2023-08-08T19:23:21;15.90;99.90
66422;DHT22;53228;51.380;0.098;2023-08-08T19:25:49;15.80;99.90
66422;DHT22;53228;51.380;0.098;2023-08-08T19:28:16;15.70;99.90
66422;DHT22;53228;51.380;0.098;2023-08-08T19:30:44;15.70;99.90
66422;DHT22;53228;51.380;0.098;2023-08-08T19:33:15;15.60;99.90
66422;DHT22;53228;51.380;0.098;2023-08-08T19:35:43;15.60;99.90
66422;DHT22;53228;51.380;0.098;2023-08-08T19:38:11;15.50;99.90
66422;DHT22;53228;51.380;0.098;2023-08-08T19:40:39;15.40;99.90
66422;DHT22;53228;51.380;0.098;2023-08-08T19:43:06;15.30;99.90
66422;DHT22;53228;51.380;0.098;2023-08-08T19:45:34;15.20;99.90
66422;DHT22;53228;51.380;0.098;2023-08-08T19:48:02;15.20;99.90
66422;DHT22;53228;51.380;0.098;2023-08-08T19:50:29;15.10;99.90
66422;DHT22;53228;51.380;0.098;2023-08-08T19:52:57;15.00;99.90
66422;DHT22;53228;51.380;0.098;2023-08-08T19:55:25;14.90;99.90
66422;DHT22;53228;51.380;0.098;2023-08-08T19:57:53;14.90;99.90
66422;DHT22;53228;51.380;0.098;2023-08-08T20:00:27;14.80;99.90
66422;DHT22;53228;51.380;0.098;2023-08-08T20:02:55;14.70;99.90
66422;DHT22;53228;51.380;0.098;2023-08-08T20:05:23;14.60;99.90
66422;DHT22;53228;51.380;0.098;2023-08-08T20:07:53;14.50;99.90
66422;DHT22;53228;51.380;0.098;2023-08-08T20:10:22;14.30;99.90
66422;DHT22;53228;51.380;0.098;2023-08-08T20:12:50;14.20;99.90
66422;DHT22;53228;51.380;0.098;2023-08-08T20:15:18;14.00;99.90
66422;DHT22;53228;51.380;0.098;2023-08-08T20:17:46;14.00;99.90
66422;DHT22;53228;51.380;0.098;2023-08-08T20:20:13;13.90;99.90
66422;DHT22;53228;51.380;0.098;2023-08-08T20:22:41;13.80;99.90
66422;DHT22;53228;51.380;0.098;2023-08-08T20:25:09;13.80;99.90
66422;DHT22;53228;51.380;0.098;2023-08-08T20:27:36;13.70;99.90
66422;DHT22;53228;51.380;0.098;2023-08-08T20:30:05;13.70;99.90
66422;DHT22;53228;51.380;0.098;2023-08-08T20:32:32;13.60;99.90
66422;DHT22;53228;51.380;0.098;2023-08-08T20:35:01;13.60;99.90
66422;DHT22;53228;51.380;0.098;2023-08-08T20:37:29;13.60;99.90
66422;DHT22;53228;51.380;0.098;2023-08-08T20:39:56;12.20;99.90
66422;DHT22;53228;51.380;0.098;2023-08-08T20:42:24;13.50;99.90
66422;DHT22;53228;51.380;0.098;2023-08-08T20:44:52;13.40;99.90
66422;DHT22;53228;51.380;0.098;2023-08-08T20:47:19;13.40;99.90
66422;DHT22;53228;51.380;0.098;2023-08-08T20:49:47;13.30;99.90
66422;DHT22;53228;51.380;0.098;2023-08-08T20:52:17;13.30;99.90
66422;DHT22;53228;51.380;0.098;2023-08-08T20:54:45;13.30;99.90
66422;DHT22;53228;51.380;0.098;2023-08-08T20:57:12;13.20;99.90
66422;DHT22;53228;51.380;0.098;2023-08-08T20:59:40;13.20;99.90
66422;DHT22;53228;51.380;0.098;2023-08-08T21:02:10;13.20;99.90
66422;DHT22;53228;51.380;0.098;2023-08-08T21:04:38;13.20;99.90
66422;DHT22;53228;51.380;0.098;2023-08-08T21:07:06;13.20;99.90
66422;DHT22;53228;51.380;0.098;2023-08-08T21:09:39;13.10;99.90
66422;DHT22;53228;51.380;0.098;2023-08-08T21:12:07;13.10;99.90
66422;DHT22;53228;51.380;0.098;2023-08-08T21:14:35;13.10;99.90
66422;DHT22;53228;51.380;0.098;2023-08-08T21:17:03;13.00;99.90
66422;DHT22;53228;51.380;0.098;2023-08-08T21:19:31;13.00;99.90
66422;DHT22;53228;51.380;0.098;2023-08-08T21:21:59;13.00;99.90
66422;DHT22;53228;51.380;0.098;2023-08-08T21:24:28;12.90;99.90
66422;DHT22;53228;51.380;0.098;2023-08-08T21:26:55;12.90;99.90
66422;DHT22;53228;51.380;0.098;2023-08-08T21:29:23;12.90;99.90
66422;DHT22;53228;51.380;0.098;2023-08-08T21:31:51;11.70;99.90
66422;DHT22;53228;51.380;0.098;2023-08-08T21:34:19;12.80;99.90
66422;DHT22;53228;51.380;0.098;2023-08-08T21:36:46;12.80;99.90
66422;DHT22;53228;51.380;0.098;2023-08-08T21:39:14;12.70;99.90
66422;DHT22;53228;51.380;0.098;2023-08-08T21:41:42;12.70;99.90
66422;DHT22;53228;51.380;0.098;2023-08-08T21:44:09;12.70;99.90
66422;DHT22;53228;51.380;0.098;2023-08-08T21:46:37;12.60;99.90
66422;DHT22;53228;51.380;0.098;2023-08-08T21:49:05;12.60;99.90
66422;DHT22;53228;51.380;0.098;2023-08-08T21:51:32;12.60;99.90
66422;DHT22;53228;51.380;0.098;2023-08-08T21:54:00;12.60;99.90
66422;DHT22;53228;51.380;0.098;2023-08-08T21:56:27;12.60;99.90
66422;DHT22;53228;51.380;0.098;2023-08-08T21:58:55;12.50;99.90
66422;DHT22;53228;51.380;0.098;2023-08-08T22:01:23;12.50;99.90
66422;DHT22;53228;51.380;0.098;2023-08-08T22:03:51;12.50;99.90
66422;DHT22;53228;51.380;0.098;2023-08-08T22:06:19;12.50;99.90
66422;DHT22;53228;51.380;0.098;2023-08-08T22:08:46;12.40;99.90
66422;DHT22;53228;51.380;0.098;2023-08-08T22:11:14;12.40;99.90
66422;DHT22;53228;51.380;0.098;2023-08-08T22:13:42;12.40;99.90
66422;DHT22;53228;51.380;0.098;2023-08-08T22:16:10;12.40;99.90
66422;DHT22;53228;51.380;0.098;2023-08-08T22:18:37;10.70;99.90
66422;DHT22;53228;51.380;0.098;2023-08-08T22:21:05;12.30;99.90
66422;DHT22;53228;51.380;0.098;2023-08-08T22:23:33;12.30;99.90
66422;DHT22;53228;51.380;0.098;2023-08-08T22:26:01;12.30;99.90
66422;DHT22;53228;51.380;0.098;2023-08-08T22:28:28;12.20;99.90
66422;DHT22;53228;51.380;0.098;2023-08-08T22:30:56;12.20;99.90
66422;DHT22;53228;51.380;0.098;2023-08-08T22:33:24;12.20;99.90
66422;DHT22;53228;51.380;0.098;2023-08-08T22:35:52;12.10;99.90
66422;DHT22;53228;51.380;0.098;2023-08-08T22:38:20;12.10;99.90
66422;DHT22;53228;51.380;0.098;2023-08-08T22:40:47;11.00;99.90
66422;DHT22;53228;51.380;0.098;2023-08-08T22:43:15;12.00;99.90
66422;DHT22;53228;51.380;0.098;2023-08-08T22:45:43;12.00;99.90
66422;DHT22;53228;51.380;0.098;2023-08-08T22:48:10;11.90;99.90
66422;DHT22;53228;51.380;0.098;2023-08-08T22:50:38;11.90;99.90
66422;DHT22;53228;51.380;0.098;2023-08-08T22:53:09;11.80;99.90
66422;DHT22;53228;51.380;0.098;2023-08-08T22:55:37;11.80;99.90
66422;DHT22;53228;51.380;0.098;2023-08-08T22:58:05;11.80;99.90
66422;DHT22;53228;51.380;0.098;2023-08-08T23:00:32;11.70;99.90
66422;DHT22;53228;51.380;0.098;2023-08-08T23:03:00;11.70;99.90
66422;DHT22;53228;51.380;0.098;2023-08-08T23:05:28;11.70;99.90
66422;DHT22;53228;51.380;0.098;2023-08-08T23:07:55;11.70;99.90
66422;DHT22;53228;51.380;0.098;2023-08-08T23:10:23;12.80;99.90
66422;DHT22;53228;51.380;0.098;2023-08-08T23:12:51;11.60;99.90
66422;DHT22;53228;51.380;0.098;2023-08-08T23:15:18;11.60;99.90
66422;DHT22;53228;51.380;0.098;2023-08-08T23:17:46;11.60;99.90
66422;DHT22;53228;51.380;0.098;2023-08-08T23:20:14;11.50;99.90
66422;DHT22;53228;51.380;0.098;2023-08-08T23:22:42;11.50;99.90
66422;DHT22;53228;51.380;0.098;2023-08-08T23:25:09;11.40;99.90
66422;DHT22;53228;51.380;0.098;2023-08-08T23:27:37;13.50;99.90
66422;DHT22;53228;51.380;0.098;2023-08-08T23:30:05;11.20;99.90
66422;DHT22;53228;51.380;0.098;2023-08-08T23:32:33;10.00;99.90
66422;DHT22;53228;51.380;0.098;2023-08-08T23:35:01;11.10;99.90
66422;DHT22;53228;51.380;0.098;2023-08-08T23:37:29;11.00;99.90
66422;DHT22;53228;51.380;0.098;2023-08-08T23:39:56;10.00;99.90
66422;DHT22;53228;51.380;0.098;2023-08-08T23:42:24;10.90;99.90
66422;DHT22;53228;51.380;0.098;2023-08-08T23:44:51;10.80;99.90
66422;DHT22;53228;51.380;0.098;2023-08-08T23:47:19;10.80;99.90
66422;DHT22;53228;51.380;0.098;2023-08-08T23:49:47;10.70;99.90
66422;DHT22;53228;51.380;0.098;2023-08-08T23:52:14;9.70;99.90
66422;DHT22;53228;51.380;0.098;2023-08-08T23:54:42;10.60;99.90
66422;DHT22;53228;51.380;0.098;2023-08-08T23:57:09;10.60;99.90
66422;DHT22;53228;51.380;0.098;2023-08-08T23:59:37;10.60;99.90
